sensor_id;sensor_type;location;lat;lon;timestamp;P1;durP1;ratioP1;P2;durP2;ratioP2
22318;SDS011;11327;52.334;9.506;2022-09-24T00:03:14;7.12;;;6.37;;
22318;SDS011;11327;52.334;9.506;2022-09-24T00:06:42;8.13;;;6.90;;
22318;SDS011;11327;52.334;9.506;2022-09-24T00:10:05;6.78;;;6.10;;
22318;SDS011;11327;52.334;9.506;2022-09-24T00:13:26;6.47;;;5.87;;
22318;SDS011;11327;52.334;9.506;2022-09-24T00:16:47;6.47;;;5.87;;
22318;SDS011;11327;52.334;9.506;2022-09-24T00:20:09;6.70;;;6.10;;
22318;SDS011;11327;52.334;9.506;2022-09-24T00:23:30;7.50;;;6.40;;
22318;SDS011;11327;52.334;9.506;2022-09-24T00:26:51;6.50;;;5.90;;
22318;SDS011;11327;52.334;9.506;2022-09-24T00:30:12;7.42;;;6.50;;
22318;SDS011;11327;52.334;9.506;2022-09-24T00:33:33;7.35;;;6.22;;
22318;SDS011;11327;52.334;9.506;2022-09-24T00:36:54;7.08;;;6.28;;
22318;SDS011;11327;52.334;9.506;2022-09-24T00:40:16;7.37;;;6.25;;
22318;SDS011;11327;52.334;9.506;2022-09-24T00:43:37;7.10;;;6.20;;
22318;SDS011;11327;52.334;9.506;2022-09-24T00:46:58;6.45;;;5.85;;
22318;SDS011;11327;52.334;9.506;2022-09-24T00:50:23;8.28;;;6.17;;
22318;SDS011;11327;52.334;9.506;2022-09-24T00:53:48;7.40;;;6.42;;
22318;SDS011;11327;52.334;9.506;2022-09-24T00:57:11;7.67;;;6.40;;
22318;SDS011;11327;52.334;9.506;2022-09-24T01:00:35;7.37;;;6.03;;
22318;SDS011;11327;52.334;9.506;2022-09-24T01:03:57;6.78;;;6.08;;
22318;SDS011;11327;52.334;9.506;2022-09-24T01:07:20;7.03;;;6.33;;
22318;SDS011;11327;52.334;9.506;2022-09-24T01:18:10;7.42;;;6.20;;
22318;SDS011;11327;52.334;9.506;2022-09-24T01:25:01;7.90;;;6.72;;
22318;SDS011;11327;52.334;9.506;2022-09-24T01:36:01;7.12;;;6.30;;
22318;SDS011;11327;52.334;9.506;2022-09-24T01:39:26;7.27;;;6.57;;
22318;SDS011;11327;52.334;9.506;2022-09-24T01:42:48;8.15;;;7.35;;
22318;SDS011;11327;52.334;9.506;2022-09-24T01:46:11;8.93;;;7.42;;
22318;SDS011;11327;52.334;9.506;2022-09-24T01:49:36;7.40;;;6.67;;
22318;SDS011;11327;52.334;9.506;2022-09-24T01:56:44;8.00;;;7.20;;
22318;SDS011;11327;52.334;9.506;2022-09-24T02:00:23;7.87;;;7.17;;
22318;SDS011;11327;52.334;9.506;2022-09-24T02:03:47;8.30;;;7.45;;
22318;SDS011;11327;52.334;9.506;2022-09-24T02:07:11;8.48;;;7.67;;
22318;SDS011;11327;52.334;9.506;2022-09-24T02:10:43;8.10;;;7.33;;
22318;SDS011;11327;52.334;9.506;2022-09-24T02:14:10;8.78;;;7.87;;
22318;SDS011;11327;52.334;9.506;2022-09-24T02:17:34;9.10;;;7.85;;
22318;SDS011;11327;52.334;9.506;2022-09-24T02:20:58;8.70;;;7.85;;
22318;SDS011;11327;52.334;9.506;2022-09-24T02:24:43;8.30;;;7.33;;
22318;SDS011;11327;52.334;9.506;2022-09-24T02:27:56;8.88;;;8.03;;
22318;SDS011;11327;52.334;9.506;2022-09-24T02:31:18;8.33;;;7.15;;
22318;SDS011;11327;52.334;9.506;2022-09-24T02:34:43;10.35;;;8.33;;
22318;SDS011;11327;52.334;9.506;2022-09-24T02:38:14;9.08;;;8.18;;
22318;SDS011;11327;52.334;9.506;2022-09-24T02:41:31;8.60;;;7.80;;
22318;SDS011;11327;52.334;9.506;2022-09-24T02:44:53;9.13;;;8.20;;
22318;SDS011;11327;52.334;9.506;2022-09-24T02:48:16;9.25;;;8.33;;
22318;SDS011;11327;52.334;9.506;2022-09-24T02:51:37;8.93;;;8.03;;
22318;SDS011;11327;52.334;9.506;2022-09-24T02:54:58;8.95;;;7.62;;
22318;SDS011;11327;52.334;9.506;2022-09-24T02:58:19;8.13;;;7.33;;
22318;SDS011;11327;52.334;9.506;2022-09-24T03:01:40;9.38;;;7.55;;
22318;SDS011;11327;52.334;9.506;2022-09-24T03:05:01;7.90;;;7.10;;
22318;SDS011;11327;52.334;9.506;2022-09-24T03:08:23;8.35;;;7.47;;
22318;SDS011;11327;52.334;9.506;2022-09-24T03:11:44;8.28;;;7.50;;
22318;SDS011;11327;52.334;9.506;2022-09-24T03:15:06;9.03;;;8.13;;
22318;SDS011;11327;52.334;9.506;2022-09-24T03:18:28;8.63;;;7.72;;
22318;SDS011;11327;52.334;9.506;2022-09-24T03:21:49;11.05;;;8.63;;
22318;SDS011;11327;52.334;9.506;2022-09-24T03:25:10;10.15;;;8.15;;
22318;SDS011;11327;52.334;9.506;2022-09-24T03:28:31;10.00;;;9.00;;
22318;SDS011;11327;52.334;9.506;2022-09-24T03:31:52;8.75;;;7.85;;
22318;SDS011;11327;52.334;9.506;2022-09-24T03:35:13;9.90;;;8.68;;
22318;SDS011;11327;52.334;9.506;2022-09-24T03:38:35;9.43;;;8.53;;
22318;SDS011;11327;52.334;9.506;2022-09-24T03:41:57;9.00;;;8.20;;
22318;SDS011;11327;52.334;9.506;2022-09-24T03:45:18;9.43;;;8.38;;
22318;SDS011;11327;52.334;9.506;2022-09-24T03:48:39;9.05;;;7.47;;
22318;SDS011;11327;52.334;9.506;2022-09-24T03:52:01;8.78;;;7.83;;
22318;SDS011;11327;52.334;9.506;2022-09-24T03:55:22;9.10;;;8.25;;
22318;SDS011;11327;52.334;9.506;2022-09-24T03:58:43;8.70;;;7.83;;
22318;SDS011;11327;52.334;9.506;2022-09-24T04:02:06;9.65;;;8.03;;
22318;SDS011;11327;52.334;9.506;2022-09-24T04:05:27;9.40;;;7.97;;
22318;SDS011;11327;52.334;9.506;2022-09-24T04:08:49;9.48;;;7.40;;
22318;SDS011;11327;52.334;9.506;2022-09-24T04:12:10;8.45;;;7.65;;
22318;SDS011;11327;52.334;9.506;2022-09-24T04:15:32;8.33;;;7.60;;
22318;SDS011;11327;52.334;9.506;2022-09-24T04:18:54;8.48;;;7.20;;
22318;SDS011;11327;52.334;9.506;2022-09-24T04:22:15;8.93;;;8.03;;
22318;SDS011;11327;52.334;9.506;2022-09-24T04:25:36;7.97;;;7.17;;
22318;SDS011;11327;52.334;9.506;2022-09-24T04:28:57;8.10;;;7.30;;
22318;SDS011;11327;52.334;9.506;2022-09-24T04:32:18;8.83;;;7.95;;
22318;SDS011;11327;52.334;9.506;2022-09-24T04:35:39;8.75;;;7.40;;
22318;SDS011;11327;52.334;9.506;2022-09-24T04:39:00;9.13;;;7.67;;
22318;SDS011;11327;52.334;9.506;2022-09-24T04:42:23;8.08;;;7.17;;
22318;SDS011;11327;52.334;9.506;2022-09-24T04:45:44;8.38;;;7.58;;
22318;SDS011;11327;52.334;9.506;2022-09-24T04:49:05;10.00;;;8.28;;
22318;SDS011;11327;52.334;9.506;2022-09-24T04:52:29;9.23;;;8.40;;
22318;SDS011;11327;52.334;9.506;2022-09-24T04:55:51;10.38;;;8.28;;
22318;SDS011;11327;52.334;9.506;2022-09-24T04:59:12;9.48;;;8.58;;
22318;SDS011;11327;52.334;9.506;2022-09-24T05:02:33;9.03;;;7.67;;
22318;SDS011;11327;52.334;9.506;2022-09-24T05:05:54;9.50;;;8.50;;
22318;SDS011;11327;52.334;9.506;2022-09-24T05:09:16;8.68;;;7.78;;
22318;SDS011;11327;52.334;9.506;2022-09-24T05:12:38;9.43;;;7.90;;
22318;SDS011;11327;52.334;9.506;2022-09-24T05:16:00;8.30;;;7.35;;
22318;SDS011;11327;52.334;9.506;2022-09-24T05:19:22;8.35;;;7.53;;
22318;SDS011;11327;52.334;9.506;2022-09-24T05:22:43;8.28;;;7.50;;
22318;SDS011;11327;52.334;9.506;2022-09-24T05:26:06;7.97;;;7.22;;
22318;SDS011;11327;52.334;9.506;2022-09-24T05:29:45;8.68;;;7.55;;
22318;SDS011;11327;52.334;9.506;2022-09-24T05:33:06;8.08;;;7.28;;
22318;SDS011;11327;52.334;9.506;2022-09-24T05:36:27;7.75;;;7.05;;
22318;SDS011;11327;52.334;9.506;2022-09-24T05:39:48;9.30;;;7.35;;
22318;SDS011;11327;52.334;9.506;2022-09-24T05:43:09;8.85;;;7.95;;
22318;SDS011;11327;52.334;9.506;2022-09-24T05:46:30;9.85;;;8.73;;
22318;SDS011;11327;52.334;9.506;2022-09-24T05:49:52;9.73;;;8.73;;
22318;SDS011;11327;52.334;9.506;2022-09-24T05:53:13;9.78;;;8.75;;
22318;SDS011;11327;52.334;9.506;2022-09-24T05:56:34;9.75;;;8.78;;
22318;SDS011;11327;52.334;9.506;2022-09-24T05:59:55;11.60;;;10.38;;
22318;SDS011;11327;52.334;9.506;2022-09-24T06:03:17;12.85;;;10.95;;
22318;SDS011;11327;52.334;9.506;2022-09-24T06:06:39;12.98;;;11.30;;
22318;SDS011;11327;52.334;9.506;2022-09-24T06:10:00;12.13;;;10.53;;
22318;SDS011;11327;52.334;9.506;2022-09-24T06:13:21;13.10;;;11.03;;
22318;SDS011;11327;52.334;9.506;2022-09-24T06:16:42;14.18;;;11.75;;
22318;SDS011;11327;52.334;9.506;2022-09-24T06:20:03;13.13;;;11.25;;
22318;SDS011;11327;52.334;9.506;2022-09-24T06:23:24;13.78;;;11.70;;
22318;SDS011;11327;52.334;9.506;2022-09-24T06:26:45;13.53;;;11.28;;
22318;SDS011;11327;52.334;9.506;2022-09-24T06:30:07;13.72;;;12.00;;
22318;SDS011;11327;52.334;9.506;2022-09-24T06:33:29;14.55;;;13.00;;
22318;SDS011;11327;52.334;9.506;2022-09-24T06:36:52;14.13;;;12.37;;
22318;SDS011;11327;52.334;9.506;2022-09-24T06:40:14;14.63;;;12.23;;
22318;SDS011;11327;52.334;9.506;2022-09-24T06:43:35;15.10;;;11.43;;
22318;SDS011;11327;52.334;9.506;2022-09-24T06:46:56;11.55;;;10.43;;
22318;SDS011;11327;52.334;9.506;2022-09-24T06:50:17;12.10;;;9.63;;
22318;SDS011;11327;52.334;9.506;2022-09-24T06:53:39;11.25;;;9.30;;
22318;SDS011;11327;52.334;9.506;2022-09-24T06:57:00;12.18;;;10.38;;
22318;SDS011;11327;52.334;9.506;2022-09-24T07:00:21;11.85;;;9.08;;
22318;SDS011;11327;52.334;9.506;2022-09-24T07:03:42;9.55;;;8.55;;
22318;SDS011;11327;52.334;9.506;2022-09-24T07:07:03;12.23;;;9.98;;
22318;SDS011;11327;52.334;9.506;2022-09-24T07:10:44;10.80;;;9.23;;
22318;SDS011;11327;52.334;9.506;2022-09-24T07:14:06;11.20;;;9.95;;
22318;SDS011;11327;52.334;9.506;2022-09-24T07:17:27;12.47;;;10.00;;
22318;SDS011;11327;52.334;9.506;2022-09-24T07:20:52;11.68;;;10.30;;
22318;SDS011;11327;52.334;9.506;2022-09-24T07:24:14;11.30;;;8.95;;
22318;SDS011;11327;52.334;9.506;2022-09-24T07:27:36;10.90;;;9.23;;
22318;SDS011;11327;52.334;9.506;2022-09-24T07:30:58;9.90;;;8.75;;
22318;SDS011;11327;52.334;9.506;2022-09-24T07:34:19;12.33;;;10.88;;
22318;SDS011;11327;52.334;9.506;2022-09-24T07:37:40;13.90;;;11.33;;
22318;SDS011;11327;52.334;9.506;2022-09-24T07:41:01;11.63;;;10.28;;
22318;SDS011;11327;52.334;9.506;2022-09-24T07:44:27;13.30;;;11.78;;
22318;SDS011;11327;52.334;9.506;2022-09-24T07:48:02;14.50;;;12.55;;
22318;SDS011;11327;52.334;9.506;2022-09-24T07:51:24;13.05;;;10.80;;
22318;SDS011;11327;52.334;9.506;2022-09-24T07:54:46;12.10;;;10.80;;
22318;SDS011;11327;52.334;9.506;2022-09-24T07:58:10;13.43;;;12.03;;
22318;SDS011;11327;52.334;9.506;2022-09-24T08:01:32;14.60;;;11.43;;
22318;SDS011;11327;52.334;9.506;2022-09-24T08:04:54;11.25;;;10.05;;
22318;SDS011;11327;52.334;9.506;2022-09-24T08:08:15;12.43;;;10.85;;
22318;SDS011;11327;52.334;9.506;2022-09-24T08:11:36;13.98;;;12.47;;
22318;SDS011;11327;52.334;9.506;2022-09-24T08:14:58;13.22;;;11.83;;
22318;SDS011;11327;52.334;9.506;2022-09-24T08:18:19;14.28;;;12.75;;
22318;SDS011;11327;52.334;9.506;2022-09-24T08:21:40;15.00;;;12.88;;
22318;SDS011;11327;52.334;9.506;2022-09-24T08:25:01;14.03;;;12.47;;
22318;SDS011;11327;52.334;9.506;2022-09-24T08:28:23;16.62;;;14.78;;
22318;SDS011;11327;52.334;9.506;2022-09-24T08:31:44;14.25;;;12.75;;
22318;SDS011;11327;52.334;9.506;2022-09-24T08:35:06;17.10;;;14.43;;
22318;SDS011;11327;52.334;9.506;2022-09-24T08:38:27;15.63;;;12.98;;
22318;SDS011;11327;52.334;9.506;2022-09-24T08:41:50;12.23;;;10.93;;
22318;SDS011;11327;52.334;9.506;2022-09-24T08:45:16;15.13;;;12.55;;
22318;SDS011;11327;52.334;9.506;2022-09-24T08:48:56;16.97;;;14.07;;
22318;SDS011;11327;52.334;9.506;2022-09-24T08:56:02;16.52;;;14.83;;
22318;SDS011;11327;52.334;9.506;2022-09-24T08:59:26;15.20;;;13.60;;
22318;SDS011;11327;52.334;9.506;2022-09-24T09:10:06;15.75;;;14.03;;
22318;SDS011;11327;52.334;9.506;2022-09-24T09:13:38;13.20;;;11.80;;
22318;SDS011;11327;52.334;9.506;2022-09-24T09:17:02;15.00;;;13.30;;
22318;SDS011;11327;52.334;9.506;2022-09-24T09:20:45;13.18;;;11.75;;
22318;SDS011;11327;52.334;9.506;2022-09-24T09:24:15;16.82;;;13.88;;
22318;SDS011;11327;52.334;9.506;2022-09-24T09:27:38;15.30;;;12.98;;
22318;SDS011;11327;52.334;9.506;2022-09-24T09:38:32;16.17;;;14.18;;
22318;SDS011;11327;52.334;9.506;2022-09-24T09:42:07;23.42;;;19.45;;
22318;SDS011;11327;52.334;9.506;2022-09-24T09:49:00;19.10;;;14.83;;
22318;SDS011;11327;52.334;9.506;2022-09-24T09:52:24;17.25;;;14.65;;
22318;SDS011;11327;52.334;9.506;2022-09-24T09:59:22;14.60;;;13.05;;
22318;SDS011;11327;52.334;9.506;2022-09-24T10:02:48;16.30;;;12.85;;
22318;SDS011;11327;52.334;9.506;2022-09-24T10:06:29;15.45;;;11.65;;
22318;SDS011;11327;52.334;9.506;2022-09-24T10:09:44;13.50;;;11.00;;
22318;SDS011;11327;52.334;9.506;2022-09-24T10:13:10;13.60;;;10.48;;
22318;SDS011;11327;52.334;9.506;2022-09-24T10:16:40;12.40;;;10.18;;
22318;SDS011;11327;52.334;9.506;2022-09-24T10:19:59;13.78;;;10.05;;
22318;SDS011;11327;52.334;9.506;2022-09-24T10:23:28;12.80;;;10.13;;
22318;SDS011;11327;52.334;9.506;2022-09-24T10:26:46;12.60;;;9.98;;
22318;SDS011;11327;52.334;9.506;2022-09-24T10:30:16;11.50;;;9.00;;
22318;SDS011;11327;52.334;9.506;2022-09-24T10:33:54;11.65;;;9.53;;
22318;SDS011;11327;52.334;9.506;2022-09-24T10:37:18;11.80;;;8.75;;
22318;SDS011;11327;52.334;9.506;2022-09-24T10:40:39;12.15;;;9.05;;
22318;SDS011;11327;52.334;9.506;2022-09-24T10:44:02;9.18;;;7.33;;
22318;SDS011;11327;52.334;9.506;2022-09-24T11:25:10;11.68;;;8.28;;
22318;SDS011;11327;52.334;9.506;2022-09-24T11:28:35;11.45;;;8.18;;
22318;SDS011;11327;52.334;9.506;2022-09-24T11:31:58;10.38;;;8.15;;
22318;SDS011;11327;52.334;9.506;2022-09-24T11:35:46;9.95;;;7.95;;
22318;SDS011;11327;52.334;9.506;2022-09-24T11:39:18;11.33;;;8.30;;
22318;SDS011;11327;52.334;9.506;2022-09-24T11:43:14;9.70;;;7.92;;
22318;SDS011;11327;52.334;9.506;2022-09-24T11:53:40;10.85;;;8.30;;
22318;SDS011;11327;52.334;9.506;2022-09-24T11:57:26;9.75;;;8.05;;
22318;SDS011;11327;52.334;9.506;2022-09-24T12:00:54;10.60;;;8.70;;
22318;SDS011;11327;52.334;9.506;2022-09-24T12:04:21;12.50;;;8.95;;
22318;SDS011;11327;52.334;9.506;2022-09-24T12:11:34;11.83;;;8.43;;
22318;SDS011;11327;52.334;9.506;2022-09-24T12:15:04;10.13;;;7.85;;
22318;SDS011;11327;52.334;9.506;2022-09-24T12:18:40;11.20;;;8.83;;
22318;SDS011;11327;52.334;9.506;2022-09-24T12:25:28;12.00;;;8.70;;
22318;SDS011;11327;52.334;9.506;2022-09-24T12:29:07;14.50;;;10.45;;
22318;SDS011;11327;52.334;9.506;2022-09-24T12:40:05;13.80;;;11.25;;
22318;SDS011;11327;52.334;9.506;2022-09-24T12:43:41;15.08;;;11.97;;
22318;SDS011;11327;52.334;9.506;2022-09-24T12:47:14;13.78;;;11.03;;
22318;SDS011;11327;52.334;9.506;2022-09-24T12:50:37;14.63;;;10.48;;
22318;SDS011;11327;52.334;9.506;2022-09-24T12:54:22;12.78;;;10.40;;
22318;SDS011;11327;52.334;9.506;2022-09-24T12:57:41;12.53;;;9.45;;
22318;SDS011;11327;52.334;9.506;2022-09-24T13:01:07;10.60;;;8.93;;
22318;SDS011;11327;52.334;9.506;2022-09-24T13:04:50;12.15;;;9.45;;
22318;SDS011;11327;52.334;9.506;2022-09-24T13:11:42;12.15;;;9.95;;
22318;SDS011;11327;52.334;9.506;2022-09-24T13:15:03;12.35;;;9.80;;
22318;SDS011;11327;52.334;9.506;2022-09-24T13:18:29;15.00;;;9.55;;
22318;SDS011;11327;52.334;9.506;2022-09-24T13:21:57;10.95;;;8.70;;
22318;SDS011;11327;52.334;9.506;2022-09-24T13:25:18;12.50;;;10.23;;
22318;SDS011;11327;52.334;9.506;2022-09-24T13:32:13;12.37;;;9.13;;
22318;SDS011;11327;52.334;9.506;2022-09-24T13:35:41;12.00;;;9.83;;
22318;SDS011;11327;52.334;9.506;2022-09-24T13:42:50;11.75;;;9.50;;
22318;SDS011;11327;52.334;9.506;2022-09-24T13:46:14;10.75;;;8.65;;
22318;SDS011;11327;52.334;9.506;2022-09-24T13:49:37;11.83;;;9.28;;
22318;SDS011;11327;52.334;9.506;2022-09-24T13:53:02;10.98;;;8.95;;
22318;SDS011;11327;52.334;9.506;2022-09-24T13:56:26;12.13;;;10.15;;
22318;SDS011;11327;52.334;9.506;2022-09-24T13:59:47;12.20;;;9.75;;
22318;SDS011;11327;52.334;9.506;2022-09-24T14:03:22;10.72;;;8.70;;
22318;SDS011;11327;52.334;9.506;2022-09-24T14:06:46;12.20;;;8.90;;
22318;SDS011;11327;52.334;9.506;2022-09-24T14:10:11;11.20;;;8.60;;
22318;SDS011;11327;52.334;9.506;2022-09-24T14:13:34;15.13;;;9.58;;
22318;SDS011;11327;52.334;9.506;2022-09-24T14:17:07;13.28;;;9.78;;
22318;SDS011;11327;52.334;9.506;2022-09-24T14:20:32;14.00;;;10.13;;
22318;SDS011;11327;52.334;9.506;2022-09-24T14:23:58;11.90;;;10.20;;
22318;SDS011;11327;52.334;9.506;2022-09-24T14:27:25;11.63;;;8.98;;
22318;SDS011;11327;52.334;9.506;2022-09-24T14:30:50;11.73;;;9.60;;
22318;SDS011;11327;52.334;9.506;2022-09-24T14:37:53;14.27;;;10.17;;
22318;SDS011;11327;52.334;9.506;2022-09-24T14:44:40;12.75;;;10.23;;
22318;SDS011;11327;52.334;9.506;2022-09-24T14:48:15;13.15;;;10.28;;
22318;SDS011;11327;52.334;9.506;2022-09-24T14:51:51;12.15;;;9.80;;
22318;SDS011;11327;52.334;9.506;2022-09-24T14:55:20;11.05;;;9.00;;
22318;SDS011;11327;52.334;9.506;2022-09-24T14:58:39;11.28;;;8.98;;
22318;SDS011;11327;52.334;9.506;2022-09-24T15:02:11;11.12;;;9.48;;
22318;SDS011;11327;52.334;9.506;2022-09-24T15:05:35;10.95;;;8.88;;
22318;SDS011;11327;52.334;9.506;2022-09-24T15:08:59;10.68;;;8.60;;
22318;SDS011;11327;52.334;9.506;2022-09-24T15:12:24;10.53;;;8.70;;
22318;SDS011;11327;52.334;9.506;2022-09-24T15:15:59;14.58;;;10.35;;
22318;SDS011;11327;52.334;9.506;2022-09-24T15:19:26;12.05;;;9.40;;
22318;SDS011;11327;52.334;9.506;2022-09-24T15:22:49;13.40;;;10.25;;
22318;SDS011;11327;52.334;9.506;2022-09-24T15:26:10;13.43;;;10.43;;
22318;SDS011;11327;52.334;9.506;2022-09-24T15:29:31;13.43;;;10.82;;
22318;SDS011;11327;52.334;9.506;2022-09-24T15:32:52;13.58;;;10.55;;
22318;SDS011;11327;52.334;9.506;2022-09-24T15:36:13;14.05;;;10.90;;
22318;SDS011;11327;52.334;9.506;2022-09-24T15:39:36;14.05;;;12.55;;
22318;SDS011;11327;52.334;9.506;2022-09-24T15:42:58;16.45;;;13.98;;
22318;SDS011;11327;52.334;9.506;2022-09-24T15:46:19;13.05;;;11.48;;
22318;SDS011;11327;52.334;9.506;2022-09-24T15:49:40;16.02;;;13.38;;
22318;SDS011;11327;52.334;9.506;2022-09-24T15:53:01;14.45;;;12.03;;
22318;SDS011;11327;52.334;9.506;2022-09-24T15:56:22;17.62;;;11.65;;
22318;SDS011;11327;52.334;9.506;2022-09-24T15:59:43;12.93;;;11.53;;
22318;SDS011;11327;52.334;9.506;2022-09-24T16:03:04;16.50;;;11.73;;
22318;SDS011;11327;52.334;9.506;2022-09-24T16:06:25;18.77;;;13.53;;
22318;SDS011;11327;52.334;9.506;2022-09-24T16:09:46;22.90;;;16.95;;
22318;SDS011;11327;52.334;9.506;2022-09-24T16:13:08;49.00;;;34.10;;
22318;SDS011;11327;52.334;9.506;2022-09-24T16:16:29;19.60;;;15.75;;
22318;SDS011;11327;52.334;9.506;2022-09-24T16:19:50;17.48;;;13.62;;
22318;SDS011;11327;52.334;9.506;2022-09-24T16:23:12;15.65;;;12.88;;
22318;SDS011;11327;52.334;9.506;2022-09-24T16:26:34;16.23;;;13.30;;
22318;SDS011;11327;52.334;9.506;2022-09-24T16:29:56;15.38;;;12.82;;
22318;SDS011;11327;52.334;9.506;2022-09-24T16:33:17;16.67;;;14.13;;
22318;SDS011;11327;52.334;9.506;2022-09-24T16:36:39;16.35;;;12.58;;
22318;SDS011;11327;52.334;9.506;2022-09-24T16:40:00;17.70;;;14.07;;
22318;SDS011;11327;52.334;9.506;2022-09-24T16:43:21;17.30;;;13.88;;
22318;SDS011;11327;52.334;9.506;2022-09-24T16:46:42;16.97;;;14.00;;
22318;SDS011;11327;52.334;9.506;2022-09-24T16:50:04;16.55;;;13.50;;
22318;SDS011;11327;52.334;9.506;2022-09-24T16:53:26;14.70;;;13.10;;
22318;SDS011;11327;52.334;9.506;2022-09-24T16:56:49;18.42;;;14.33;;
22318;SDS011;11327;52.334;9.506;2022-09-24T17:00:11;16.40;;;13.32;;
22318;SDS011;11327;52.334;9.506;2022-09-24T17:03:33;15.65;;;13.18;;
22318;SDS011;11327;52.334;9.506;2022-09-24T17:06:54;17.90;;;14.20;;
22318;SDS011;11327;52.334;9.506;2022-09-24T17:10:16;17.05;;;14.00;;
22318;SDS011;11327;52.334;9.506;2022-09-24T17:13:37;16.97;;;13.85;;
22318;SDS011;11327;52.334;9.506;2022-09-24T17:16:58;16.27;;;14.05;;
22318;SDS011;11327;52.334;9.506;2022-09-24T17:20:19;18.82;;;15.78;;
22318;SDS011;11327;52.334;9.506;2022-09-24T17:23:40;19.82;;;17.73;;
22318;SDS011;11327;52.334;9.506;2022-09-24T17:27:01;20.97;;;18.67;;
22318;SDS011;11327;52.334;9.506;2022-09-24T17:30:22;26.17;;;23.38;;
22318;SDS011;11327;52.334;9.506;2022-09-24T17:33:43;25.75;;;22.93;;
22318;SDS011;11327;52.334;9.506;2022-09-24T17:37:06;20.30;;;17.02;;
22318;SDS011;11327;52.334;9.506;2022-09-24T17:40:27;20.05;;;16.23;;
22318;SDS011;11327;52.334;9.506;2022-09-24T17:43:48;25.52;;;19.80;;
22318;SDS011;11327;52.334;9.506;2022-09-24T17:47:09;56.70;;;38.33;;
22318;SDS011;11327;52.334;9.506;2022-09-24T17:50:30;43.38;;;31.07;;
22318;SDS011;11327;52.334;9.506;2022-09-24T17:53:52;30.27;;;22.90;;
22318;SDS011;11327;52.334;9.506;2022-09-24T17:57:14;20.35;;;17.30;;
22318;SDS011;11327;52.334;9.506;2022-09-24T18:00:35;19.87;;;15.93;;
22318;SDS011;11327;52.334;9.506;2022-09-24T18:03:58;20.30;;;16.90;;
22318;SDS011;11327;52.334;9.506;2022-09-24T18:07:19;19.27;;;17.17;;
22318;SDS011;11327;52.334;9.506;2022-09-24T18:10:40;20.12;;;16.50;;
22318;SDS011;11327;52.334;9.506;2022-09-24T18:14:01;20.85;;;16.97;;
22318;SDS011;11327;52.334;9.506;2022-09-24T18:17:22;21.27;;;17.65;;
22318;SDS011;11327;52.334;9.506;2022-09-24T18:20:43;32.95;;;27.77;;
22318;SDS011;11327;52.334;9.506;2022-09-24T18:24:05;31.57;;;27.50;;
22318;SDS011;11327;52.334;9.506;2022-09-24T18:27:26;25.82;;;21.17;;
22318;SDS011;11327;52.334;9.506;2022-09-24T18:30:59;23.05;;;18.70;;
22318;SDS011;11327;52.334;9.506;2022-09-24T18:34:15;22.62;;;18.45;;
22318;SDS011;11327;52.334;9.506;2022-09-24T18:37:36;21.50;;;16.97;;
22318;SDS011;11327;52.334;9.506;2022-09-24T18:41:04;22.85;;;17.30;;
22318;SDS011;11327;52.334;9.506;2022-09-24T18:44:28;22.93;;;19.02;;
22318;SDS011;11327;52.334;9.506;2022-09-24T18:47:49;24.60;;;19.57;;
22318;SDS011;11327;52.334;9.506;2022-09-24T18:54:39;20.92;;;18.02;;
22318;SDS011;11327;52.334;9.506;2022-09-24T18:58:00;20.72;;;18.10;;
22318;SDS011;11327;52.334;9.506;2022-09-24T19:01:22;24.63;;;20.27;;
22318;SDS011;11327;52.334;9.506;2022-09-24T19:04:43;23.42;;;19.48;;
22318;SDS011;11327;52.334;9.506;2022-09-24T19:08:04;24.10;;;19.67;;
22318;SDS011;11327;52.334;9.506;2022-09-24T19:11:25;23.92;;;18.90;;
22318;SDS011;11327;52.334;9.506;2022-09-24T19:14:47;28.05;;;20.82;;
22318;SDS011;11327;52.334;9.506;2022-09-24T19:18:09;26.20;;;20.75;;
22318;SDS011;11327;52.334;9.506;2022-09-24T19:21:32;22.98;;;17.92;;
22318;SDS011;11327;52.334;9.506;2022-09-24T19:24:53;26.97;;;21.33;;
22318;SDS011;11327;52.334;9.506;2022-09-24T19:28:14;28.98;;;22.58;;
22318;SDS011;11327;52.334;9.506;2022-09-24T19:31:36;27.10;;;21.55;;
22318;SDS011;11327;52.334;9.506;2022-09-24T19:34:58;31.20;;;22.98;;
22318;SDS011;11327;52.334;9.506;2022-09-24T19:38:30;27.15;;;21.57;;
22318;SDS011;11327;52.334;9.506;2022-09-24T19:41:47;29.15;;;23.00;;
22318;SDS011;11327;52.334;9.506;2022-09-24T19:45:10;29.87;;;22.73;;
22318;SDS011;11327;52.334;9.506;2022-09-24T19:48:33;32.88;;;25.12;;
22318;SDS011;11327;52.334;9.506;2022-09-24T19:51:58;34.80;;;26.57;;
22318;SDS011;11327;52.334;9.506;2022-09-24T19:55:19;33.08;;;25.82;;
22318;SDS011;11327;52.334;9.506;2022-09-24T19:58:40;31.23;;;24.43;;
22318;SDS011;11327;52.334;9.506;2022-09-24T20:02:01;35.98;;;26.42;;
22318;SDS011;11327;52.334;9.506;2022-09-24T20:05:22;34.13;;;26.30;;
22318;SDS011;11327;52.334;9.506;2022-09-24T20:08:43;34.63;;;26.60;;
22318;SDS011;11327;52.334;9.506;2022-09-24T20:12:04;33.92;;;25.82;;
22318;SDS011;11327;52.334;9.506;2022-09-24T20:15:25;34.95;;;26.95;;
22318;SDS011;11327;52.334;9.506;2022-09-24T20:18:48;34.50;;;26.15;;
22318;SDS011;11327;52.334;9.506;2022-09-24T20:22:10;38.02;;;27.52;;
22318;SDS011;11327;52.334;9.506;2022-09-24T20:25:31;37.95;;;27.67;;
22318;SDS011;11327;52.334;9.506;2022-09-24T20:29:11;36.63;;;26.27;;
22318;SDS011;11327;52.334;9.506;2022-09-24T20:32:33;33.95;;;25.35;;
22318;SDS011;11327;52.334;9.506;2022-09-24T20:35:59;33.95;;;25.70;;
22318;SDS011;11327;52.334;9.506;2022-09-24T20:39:21;31.23;;;23.22;;
22318;SDS011;11327;52.334;9.506;2022-09-24T20:42:42;30.23;;;23.07;;
22318;SDS011;11327;52.334;9.506;2022-09-24T20:46:12;28.23;;;21.75;;
22318;SDS011;11327;52.334;9.506;2022-09-24T20:49:37;27.37;;;20.00;;
22318;SDS011;11327;52.334;9.506;2022-09-24T20:52:58;25.27;;;19.87;;
22318;SDS011;11327;52.334;9.506;2022-09-24T20:56:19;24.30;;;18.92;;
22318;SDS011;11327;52.334;9.506;2022-09-24T20:59:41;23.07;;;18.40;;
22318;SDS011;11327;52.334;9.506;2022-09-24T21:03:02;22.62;;;17.30;;
22318;SDS011;11327;52.334;9.506;2022-09-24T21:06:23;20.65;;;16.35;;
22318;SDS011;11327;52.334;9.506;2022-09-24T21:09:44;23.60;;;17.00;;
22318;SDS011;11327;52.334;9.506;2022-09-24T21:13:05;22.10;;;15.98;;
22318;SDS011;11327;52.334;9.506;2022-09-24T21:16:28;19.12;;;15.00;;
22318;SDS011;11327;52.334;9.506;2022-09-24T21:19:51;17.85;;;14.43;;
22318;SDS011;11327;52.334;9.506;2022-09-24T21:23:12;19.10;;;14.25;;
22318;SDS011;11327;52.334;9.506;2022-09-24T21:26:34;17.12;;;13.43;;
22318;SDS011;11327;52.334;9.506;2022-09-24T21:29:56;16.50;;;13.78;;
22318;SDS011;11327;52.334;9.506;2022-09-24T21:33:18;18.37;;;14.60;;
22318;SDS011;11327;52.334;9.506;2022-09-24T21:36:39;17.98;;;13.70;;
22318;SDS011;11327;52.334;9.506;2022-09-24T21:40:02;18.85;;;14.30;;
22318;SDS011;11327;52.334;9.506;2022-09-24T21:43:24;15.98;;;13.65;;
22318;SDS011;11327;52.334;9.506;2022-09-24T21:46:45;15.65;;;13.15;;
22318;SDS011;11327;52.334;9.506;2022-09-24T21:50:07;15.43;;;13.20;;
22318;SDS011;11327;52.334;9.506;2022-09-24T21:53:29;16.52;;;12.88;;
22318;SDS011;11327;52.334;9.506;2022-09-24T21:56:50;15.90;;;13.22;;
22318;SDS011;11327;52.334;9.506;2022-09-24T22:00:13;15.85;;;13.48;;
22318;SDS011;11327;52.334;9.506;2022-09-24T22:03:34;14.90;;;12.45;;
22318;SDS011;11327;52.334;9.506;2022-09-24T22:06:55;17.10;;;14.05;;
22318;SDS011;11327;52.334;9.506;2022-09-24T22:10:17;17.42;;;14.87;;
22318;SDS011;11327;52.334;9.506;2022-09-24T22:13:38;23.50;;;17.30;;